Nissos Mykonos — SYJZ — position and weather

sailwx.info

Track history (hours):
 
Tides and Currents Weather Stations Pressure Air Temp Water Temp Dewpoint Dewpoint Depression Visibility Wind Speed Wind Dir Waves Ship Positions

Nissos Mykonos

Last reported at 2014-Dec-20 16:33 UTC. Time now 2014-Dec-20 17:20 UTC.
Position N 40°56' E 024°25'.

Length 141 m; draft 5.2 m.

Type: Passenger vessel. MMSI: 240389000.

Date/timePositionNaut miles runAvg speedWind from/ knotsBaromVisibWave heightAir tempDewpointWater temp
2014-Dec-20 16:33N 40°56' E 024°25'10 9.6
2014-Dec-20 15:33N 40°46' E 024°27'2221.6
2014-Dec-20 14:33N 40°26' E 024°37'2622.0
2014-Dec-20 13:22N 40°03' E 024°53'14913.4
2014-Dec-20 02:13N 37°58' E 026°37'51 9.1
2014-Dec-19 20:33N 37°34' E 025°40'1717.4
2014-Dec-19 19:33N 37°28' E 025°19'1716.6
2014-Dec-19 18:33N 37°26' E 024°58'8 8.4
2014-Dec-19 17:33N 37°32' E 024°50'2121.3
2014-Dec-19 16:33N 37°31' E 024°23'2821.1
2014-Dec-19 15:15N 37°38' E 023°50'1420.4
2014-Dec-19 14:34N 37°48' E 023°38'8 8.5
2014-Dec-19 13:34N 37°57' E 023°38'0 0.0
2014-Dec-19 12:33N 37°57' E 023°38'0 0.0
2014-Dec-19 11:34N 37°57' E 023°38'0 0.0
2014-Dec-19 10:33N 37°57' E 023°38'0 0.0
2014-Dec-19 09:34N 37°57' E 023°38'0 0.0
2014-Dec-19 08:34N 37°57' E 023°38'0 0.0
2014-Dec-19 07:34N 37°57' E 023°38'0 0.0
2014-Dec-19 06:34N 37°57' E 023°38'0 0.0
2014-Dec-19 05:34N 37°57' E 023°38'0 0.0
2014-Dec-19 04:34N 37°57' E 023°38'0 0.0
2014-Dec-19 03:33N 37°57' E 023°38'0 0.0
2014-Dec-19 02:33N 37°57' E 023°38'0 0.0
2014-Dec-19 01:33N 37°57' E 023°38'0 0.0
2014-Dec-19 00:33N 37°57' E 023°38'0 0.0
2014-Dec-18 23:33N 37°57' E 023°38'0 0.0
2014-Dec-18 22:34N 37°57' E 023°38'0 0.0
2014-Dec-18 21:34N 37°57' E 023°38'1413.5
2014-Dec-18 20:33N 37°44' E 023°44'4120.6
2014-Dec-18 18:33N 37°31' E 024°33'2019.3
2014-Dec-18 17:32N 37°27' E 024°58'1313.5
2014-Dec-18 16:33N 37°27' E 025°14'1010.4
2014-Dec-18 15:33N 37°32' E 025°26'2221.2
2014-Dec-18 14:32N 37°36' E 025°53'4016.3
2014-Dec-18 12:06N 37°48' E 026°41'15711.5
2014-Dec-17 22:25N 40°02' E 024°54'1820.9
2014-Dec-17 21:33N 40°18' E 024°43'2121.0
2014-Dec-17 20:33N 40°36' E 024°30'2019.9
2014-Dec-17 19:34N 40°56' E 024°25'0 0.0
2014-Dec-17 18:34N 40°56' E 024°25'0 0.0
2014-Dec-17 17:34N 40°56' E 024°25'1 1.5
2014-Dec-17 16:33N 40°54' E 024°24'2221.8
2014-Dec-17 15:33N 40°33' E 024°31'2222.1
2014-Dec-17 14:33N 40°14' E 024°45'2221.6
2014-Dec-17 13:33N 39°55' E 024°60'144 8.5
2014-Dec-16 20:33N 37°35' E 025°41'1918.8
2014-Dec-16 19:34N 37°28' E 025°19'1616.4
2014-Dec-16 18:33N 37°26' E 024°58'1110.8
2014-Dec-16 17:34N 37°32' E 024°46'2221.0
2014-Dec-16 16:31N 37°31' E 024°19'2420.9
2014-Dec-16 15:21N 37°38' E 023°50'1619.6
2014-Dec-16 14:33N 37°50' E 023°37'7 6.3
2014-Dec-16 13:30N 37°57' E 023°38'0 0.0
2014-Dec-16 12:33N 37°57' E 023°38'0 0.0
2014-Dec-16 11:32N 37°57' E 023°38'0 0.0
2014-Dec-16 10:33N 37°57' E 023°38'0 0.0
2014-Dec-16 09:33N 37°57' E 023°38'0 0.0
2014-Dec-16 08:33N 37°57' E 023°38'0 0.0
2014-Dec-16 07:33N 37°57' E 023°38'0 0.0
2014-Dec-16 06:33N 37°57' E 023°38'0 0.0
2014-Dec-16 05:33N 37°57' E 023°38'0 0.0
2014-Dec-16 04:33N 37°57' E 023°38'0 0.0
2014-Dec-16 03:32N 37°57' E 023°38'0 0.0
2014-Dec-16 02:33N 37°57' E 023°38'0 0.0
2014-Dec-16 01:33N 37°57' E 023°38'0 0.0
2014-Dec-16 00:33N 37°57' E 023°38'0 0.0
2014-Dec-15 23:33N 37°57' E 023°38'0 0.0
2014-Dec-15 22:33N 37°57' E 023°38'0 0.0
2014-Dec-15 21:33N 37°57' E 023°38'0 0.0
2014-Dec-15 20:33N 37°57' E 023°38'0 0.0
2014-Dec-15 19:33N 37°57' E 023°38'0 0.0
2014-Dec-15 18:33N 37°57' E 023°38'0 0.0
2014-Dec-15 17:33N 37°57' E 023°38'0 0.0
2014-Dec-15 16:33N 37°57' E 023°38'0 0.0
2014-Dec-15 15:33N 37°57' E 023°38'0 0.0
2014-Dec-15 14:33N 37°57' E 023°38'0 0.0
2014-Dec-15 13:33N 37°57' E 023°38'0 0.0
2014-Dec-15 12:33N 37°57' E 023°38'0 0.0
2014-Dec-15 11:33N 37°57' E 023°38'0 0.0
2014-Dec-15 10:33N 37°57' E 023°38'0 0.0
2014-Dec-15 09:33N 37°57' E 023°38'0 0.0
2014-Dec-15 08:33N 37°57' E 023°38'0 0.0
2014-Dec-15 07:33N 37°57' E 023°38'0 0.0
2014-Dec-15 06:33N 37°57' E 023°38'0 0.0
2014-Dec-15 05:33N 37°57' E 023°38'0 0.0
2014-Dec-15 04:33N 37°57' E 023°38'0 0.0
2014-Dec-15 03:33N 37°57' E 023°38'0 0.0
2014-Dec-15 02:33N 37°57' E 023°38'0 0.0
2014-Dec-15 01:33N 37°57' E 023°38'0 0.0
2014-Dec-15 00:33N 37°57' E 023°38'0 0.0
2014-Dec-14 23:33N 37°57' E 023°38'0 0.0
2014-Dec-14 22:33N 37°57' E 023°38'0 0.0
2014-Dec-14 21:33N 37°57' E 023°38'1616.1
2014-Dec-14 20:33N 37°42' E 023°46'2721.3
2014-Dec-14 19:17N 37°30' E 024°17'1621.6
2014-Dec-14 18:33N 37°31' E 024°37'1615.9
2014-Dec-14 17:31N 37°26' E 024°57'1717.5
2014-Dec-14 16:33N 37°28' E 025°18'1312.9
2014-Dec-14 15:34N 37°33' E 025°32'2221.6
2014-Dec-14 14:34N 37°38' E 025°59'153 9.5
2014-Dec-13 22:22N 40°02' E 024°54'1721.0
2014-Dec-13 21:34N 40°17' E 024°43'2121.2
2014-Dec-13 20:34N 40°36' E 024°30'2120.8
2014-Dec-13 19:34N 40°56' E 024°24'0 0.1
2014-Dec-13 18:34N 40°56' E 024°25'0 0.0
2014-Dec-13 17:33N 40°56' E 024°25'0 0.0
2014-Dec-13 16:34N 40°56' E 024°25'1110.8
2014-Dec-13 15:33N 40°45' E 024°27'2120.9
2014-Dec-13 14:33N 40°26' E 024°37'17214.1
2014-Dec-13 02:21N 37°60' E 026°34'51 8.7
2014-Dec-12 20:33N 37°38' E 025°36'1716.7
2014-Dec-12 19:33N 37°28' E 025°19'1716.9
2014-Dec-12 18:33N 37°26' E 024°58'10 9.7
2014-Dec-12 17:33N 37°32' E 024°49'2020.3
2014-Dec-12 16:33N 37°31' E 024°23'2320.7
2014-Dec-12 15:27N 37°36' E 023°55'1820.0
2014-Dec-12 14:34N 37°48' E 023°38'8 8.5
2014-Dec-12 13:34N 37°57' E 023°38'0 0.0
2014-Dec-12 12:34N 37°57' E 023°38'0 0.0
2014-Dec-12 11:34N 37°57' E 023°38'0 0.0
2014-Dec-12 10:34N 37°57' E 023°38'0 0.0
2014-Dec-12 09:34N 37°57' E 023°38'0 0.0
2014-Dec-12 08:20N 37°57' E 023°38'0 0.0
2014-Dec-12 07:33N 37°57' E 023°38'0 0.0
2014-Dec-12 06:33N 37°57' E 023°38'0 0.0
2014-Dec-12 05:34N 37°57' E 023°38'0 0.0
2014-Dec-12 04:34N 37°57' E 023°38'0 0.0
2014-Dec-12 03:34N 37°57' E 023°38'0 0.0
2014-Dec-12 02:33N 37°57' E 023°38'0 0.0
2014-Dec-12 01:34N 37°57' E 023°38'0 0.0
2014-Dec-12 00:34N 37°57' E 023°38'0 0.0
2014-Dec-11 23:34N 37°57' E 023°38'0 0.0
2014-Dec-11 22:34N 37°57' E 023°38'4 4.2
2014-Dec-11 21:33N 37°53' E 023°39'2523.3
2014-Dec-11 20:29N 37°35' E 024°02'2224.3
2014-Dec-11 19:33N 37°31' E 024°30'2322.0
2014-Dec-11 18:32N 37°27' E 024°58'1616.4
2014-Dec-11 17:34N 37°28' E 025°18'1313.4
2014-Dec-11 16:33N 37°33' E 025°33'2524.6
2014-Dec-11 15:33N 37°38' E 026°04'171 9.5
2014-Dec-10 21:33N 40°17' E 024°43'2121.4
2014-Dec-10 20:33N 40°36' E 024°30'2020.3
2014-Dec-10 19:33N 40°56' E 024°24'0 0.2
2014-Dec-10 18:33N 40°56' E 024°25'0 0.0
2014-Dec-10 17:33N 40°56' E 024°25'  
Track history (hours):
 
Tides and Currents Weather Stations Pressure Air Temp Water Temp Dewpoint Dewpoint Depression Visibility Wind Speed Wind Dir Waves Ship Positions

Nissos Mykonos

Last reported at 2014-Dec-20 16:33 UTC. Time now 2014-Dec-20 17:20 UTC.
Position N 40°56' E 024°25'.

Length 141 m; draft 5.2 m.

Type: Passenger vessel. MMSI: 240389000.

Date/timePositionNaut miles runAvg speedWind from/ knotsBaromVisibWave heightAir tempDewpointWater temp
2014-Dec-20 16:33N 40°56' E 024°25'10 9.6
2014-Dec-20 15:33N 40°46' E 024°27'2221.6
2014-Dec-20 14:33N 40°26' E 024°37'2622.0
2014-Dec-20 13:22N 40°03' E 024°53'14913.4
2014-Dec-20 02:13N 37°58' E 026°37'51 9.1
2014-Dec-19 20:33N 37°34' E 025°40'1717.4
2014-Dec-19 19:33N 37°28' E 025°19'1716.6
2014-Dec-19 18:33N 37°26' E 024°58'8 8.4
2014-Dec-19 17:33N 37°32' E 024°50'2121.3
2014-Dec-19 16:33N 37°31' E 024°23'2821.1
2014-Dec-19 15:15N 37°38' E 023°50'1420.4
2014-Dec-19 14:34N 37°48' E 023°38'8 8.5
2014-Dec-19 13:34N 37°57' E 023°38'0 0.0
2014-Dec-19 12:33N 37°57' E 023°38'0 0.0
2014-Dec-19 11:34N 37°57' E 023°38'0 0.0
2014-Dec-19 10:33N 37°57' E 023°38'0 0.0
2014-Dec-19 09:34N 37°57' E 023°38'0 0.0
2014-Dec-19 08:34N 37°57' E 023°38'0 0.0
2014-Dec-19 07:34N 37°57' E 023°38'0 0.0
2014-Dec-19 06:34N 37°57' E 023°38'0 0.0
2014-Dec-19 05:34N 37°57' E 023°38'0 0.0
2014-Dec-19 04:34N 37°57' E 023°38'0 0.0
2014-Dec-19 03:33N 37°57' E 023°38'0 0.0
2014-Dec-19 02:33N 37°57' E 023°38'0 0.0
2014-Dec-19 01:33N 37°57' E 023°38'0 0.0
2014-Dec-19 00:33N 37°57' E 023°38'0 0.0
2014-Dec-18 23:33N 37°57' E 023°38'0 0.0
2014-Dec-18 22:34N 37°57' E 023°38'0 0.0
2014-Dec-18 21:34N 37°57' E 023°38'1413.5
2014-Dec-18 20:33N 37°44' E 023°44'4120.6
2014-Dec-18 18:33N 37°31' E 024°33'2019.3
2014-Dec-18 17:32N 37°27' E 024°58'1313.5
2014-Dec-18 16:33N 37°27' E 025°14'1010.4
2014-Dec-18 15:33N 37°32' E 025°26'2221.2
2014-Dec-18 14:32N 37°36' E 025°53'4016.3
2014-Dec-18 12:06N 37°48' E 026°41'15711.5
2014-Dec-17 22:25N 40°02' E 024°54'1820.9
2014-Dec-17 21:33N 40°18' E 024°43'2121.0
2014-Dec-17 20:33N 40°36' E 024°30'2019.9
2014-Dec-17 19:34N 40°56' E 024°25'0 0.0
2014-Dec-17 18:34N 40°56' E 024°25'0 0.0
2014-Dec-17 17:34N 40°56' E 024°25'1 1.5
2014-Dec-17 16:33N 40°54' E 024°24'2221.8
2014-Dec-17 15:33N 40°33' E 024°31'2222.1
2014-Dec-17 14:33N 40°14' E 024°45'2221.6
2014-Dec-17 13:33N 39°55' E 024°60'144 8.5
2014-Dec-16 20:33N 37°35' E 025°41'1918.8
2014-Dec-16 19:34N 37°28' E 025°19'1616.4
2014-Dec-16 18:33N 37°26' E 024°58'1110.8
2014-Dec-16 17:34N 37°32' E 024°46'2221.0
2014-Dec-16 16:31N 37°31' E 024°19'2420.9
2014-Dec-16 15:21N 37°38' E 023°50'1619.6
2014-Dec-16 14:33N 37°50' E 023°37'7 6.3
2014-Dec-16 13:30N 37°57' E 023°38'0 0.0
2014-Dec-16 12:33N 37°57' E 023°38'0 0.0
2014-Dec-16 11:32N 37°57' E 023°38'0 0.0
2014-Dec-16 10:33N 37°57' E 023°38'0 0.0
2014-Dec-16 09:33N 37°57' E 023°38'0 0.0
2014-Dec-16 08:33N 37°57' E 023°38'0 0.0
2014-Dec-16 07:33N 37°57' E 023°38'0 0.0
2014-Dec-16 06:33N 37°57' E 023°38'0 0.0
2014-Dec-16 05:33N 37°57' E 023°38'0 0.0
2014-Dec-16 04:33N 37°57' E 023°38'0 0.0
2014-Dec-16 03:32N 37°57' E 023°38'0 0.0
2014-Dec-16 02:33N 37°57' E 023°38'0 0.0
2014-Dec-16 01:33N 37°57' E 023°38'0 0.0
2014-Dec-16 00:33N 37°57' E 023°38'0 0.0
2014-Dec-15 23:33N 37°57' E 023°38'0 0.0
2014-Dec-15 22:33N 37°57' E 023°38'0 0.0
2014-Dec-15 21:33N 37°57' E 023°38'0 0.0
2014-Dec-15 20:33N 37°57' E 023°38'0 0.0
2014-Dec-15 19:33N 37°57' E 023°38'0 0.0
2014-Dec-15 18:33N 37°57' E 023°38'0 0.0
2014-Dec-15 17:33N 37°57' E 023°38'0 0.0
2014-Dec-15 16:33N 37°57' E 023°38'0 0.0
2014-Dec-15 15:33N 37°57' E 023°38'0 0.0
2014-Dec-15 14:33N 37°57' E 023°38'0 0.0
2014-Dec-15 13:33N 37°57' E 023°38'0 0.0
2014-Dec-15 12:33N 37°57' E 023°38'0 0.0
2014-Dec-15 11:33N 37°57' E 023°38'0 0.0
2014-Dec-15 10:33N 37°57' E 023°38'0 0.0
2014-Dec-15 09:33N 37°57' E 023°38'0 0.0
2014-Dec-15 08:33N 37°57' E 023°38'0 0.0
2014-Dec-15 07:33N 37°57' E 023°38'0 0.0
2014-Dec-15 06:33N 37°57' E 023°38'0 0.0
2014-Dec-15 05:33N 37°57' E 023°38'0 0.0
2014-Dec-15 04:33N 37°57' E 023°38'0 0.0
2014-Dec-15 03:33N 37°57' E 023°38'0 0.0
2014-Dec-15 02:33N 37°57' E 023°38'0 0.0
2014-Dec-15 01:33N 37°57' E 023°38'0 0.0
2014-Dec-15 00:33N 37°57' E 023°38'0 0.0
2014-Dec-14 23:33N 37°57' E 023°38'0 0.0
2014-Dec-14 22:33N 37°57' E 023°38'0 0.0
2014-Dec-14 21:33N 37°57' E 023°38'1616.1
2014-Dec-14 20:33N 37°42' E 023°46'2721.3
2014-Dec-14 19:17N 37°30' E 024°17'1621.6
2014-Dec-14 18:33N 37°31' E 024°37'1615.9
2014-Dec-14 17:31N 37°26' E 024°57'1717.5
2014-Dec-14 16:33N 37°28' E 025°18'1312.9
2014-Dec-14 15:34N 37°33' E 025°32'2221.6
2014-Dec-14 14:34N 37°38' E 025°59'153 9.5
2014-Dec-13 22:22N 40°02' E 024°54'1721.0
2014-Dec-13 21:34N 40°17' E 024°43'2121.2
2014-Dec-13 20:34N 40°36' E 024°30'2120.8
2014-Dec-13 19:34N 40°56' E 024°24'0 0.1
2014-Dec-13 18:34N 40°56' E 024°25'0 0.0
2014-Dec-13 17:33N 40°56' E 024°25'0 0.0
2014-Dec-13 16:34N 40°56' E 024°25'1110.8
2014-Dec-13 15:33N 40°45' E 024°27'2120.9
2014-Dec-13 14:33N 40°26' E 024°37'17214.1
2014-Dec-13 02:21N 37°60' E 026°34'51 8.7
2014-Dec-12 20:33N 37°38' E 025°36'1716.7
2014-Dec-12 19:33N 37°28' E 025°19'1716.9
2014-Dec-12 18:33N 37°26' E 024°58'10 9.7
2014-Dec-12 17:33N 37°32' E 024°49'2020.3
2014-Dec-12 16:33N 37°31' E 024°23'2320.7
2014-Dec-12 15:27N 37°36' E 023°55'1820.0
2014-Dec-12 14:34N 37°48' E 023°38'8 8.5
2014-Dec-12 13:34N 37°57' E 023°38'0 0.0
2014-Dec-12 12:34N 37°57' E 023°38'0 0.0
2014-Dec-12 11:34N 37°57' E 023°38'0 0.0
2014-Dec-12 10:34N 37°57' E 023°38'0 0.0
2014-Dec-12 09:34N 37°57' E 023°38'0 0.0
2014-Dec-12 08:20N 37°57' E 023°38'0 0.0
2014-Dec-12 07:33N 37°57' E 023°38'0 0.0
2014-Dec-12 06:33N 37°57' E 023°38'0 0.0
2014-Dec-12 05:34N 37°57' E 023°38'0 0.0
2014-Dec-12 04:34N 37°57' E 023°38'0 0.0
2014-Dec-12 03:34N 37°57' E 023°38'0 0.0
2014-Dec-12 02:33N 37°57' E 023°38'0 0.0
2014-Dec-12 01:34N 37°57' E 023°38'0 0.0
2014-Dec-12 00:34N 37°57' E 023°38'0 0.0
2014-Dec-11 23:34N 37°57' E 023°38'0 0.0
2014-Dec-11 22:34N 37°57' E 023°38'4 4.2
2014-Dec-11 21:33N 37°53' E 023°39'2523.3
2014-Dec-11 20:29N 37°35' E 024°02'2224.3
2014-Dec-11 19:33N 37°31' E 024°30'2322.0
2014-Dec-11 18:32N 37°27' E 024°58'1616.4
2014-Dec-11 17:34N 37°28' E 025°18'1313.4
2014-Dec-11 16:33N 37°33' E 025°33'2524.6
2014-Dec-11 15:33N 37°38' E 026°04'171 9.5
2014-Dec-10 21:33N 40°17' E 024°43'2121.4
2014-Dec-10 20:33N 40°36' E 024°30'2020.3
2014-Dec-10 19:33N 40°56' E 024°24'0 0.2
2014-Dec-10 18:33N 40°56' E 024°25'0 0.0
2014-Dec-10 17:33N 40°56' E 024°25'  

Dump ship's entire track history